createdAt,value
2023-03-23T00:02:19.829Z,28.38
2023-03-23T00:06:19.813Z,28.36
2023-03-23T00:10:19.749Z,28.35
2023-03-23T00:14:19.719Z,28.35
2023-03-23T00:18:19.712Z,28.35
2023-03-23T00:22:19.673Z,28.32
2023-03-23T00:26:19.604Z,28.33
2023-03-23T00:30:19.598Z,28.32
2023-03-23T00:34:19.557Z,28.30
2023-03-23T00:38:19.543Z,28.30
2023-03-23T00:42:19.670Z,28.32
2023-03-23T00:46:19.630Z,28.30
2023-03-23T00:50:22.257Z,28.29
2023-03-23T00:54:20.591Z,28.29
2023-03-23T00:58:19.580Z,28.27
2023-03-23T01:02:19.735Z,28.25
2023-03-23T01:06:19.747Z,28.27
2023-03-23T01:10:19.685Z,28.26
2023-03-23T01:14:19.691Z,28.26
2023-03-23T01:18:19.610Z,28.23
2023-03-23T01:22:20.565Z,28.26
2023-03-23T01:26:20.015Z,28.25
2023-03-23T01:30:19.734Z,28.23
2023-03-23T01:34:19.937Z,28.25
2023-03-23T01:38:20.114Z,28.25
2023-03-23T01:42:20.321Z,28.23
2023-03-23T01:46:20.430Z,28.20
2023-03-23T01:50:20.637Z,28.20
2023-03-23T01:54:20.778Z,28.19
2023-03-23T01:58:20.920Z,28.20
2023-03-23T02:02:21.085Z,28.18
2023-03-23T02:06:21.002Z,28.18
2023-03-23T02:10:21.000Z,28.19
2023-03-23T02:14:20.916Z,28.16
2023-03-23T02:18:20.887Z,28.18
2023-03-23T02:22:20.958Z,28.16
2023-03-23T02:26:20.827Z,28.15
2023-03-23T02:30:20.839Z,28.15
2023-03-23T02:34:20.687Z,28.13
2023-03-23T02:38:20.725Z,28.11
2023-03-23T02:42:21.508Z,28.11
2023-03-23T02:46:20.601Z,28.15
2023-03-23T02:50:20.566Z,28.12
2023-03-23T02:54:20.549Z,28.12
2023-03-23T02:58:20.524Z,28.13
2023-03-23T03:02:20.451Z,28.12
2023-03-23T03:06:20.447Z,28.11
2023-03-23T03:10:20.401Z,28.09
2023-03-23T03:14:20.382Z,28.12
2023-03-23T03:18:20.337Z,28.11
2023-03-23T03:22:20.291Z,28.09
2023-03-23T03:26:20.280Z,28.08
2023-03-23T03:30:20.222Z,28.08
2023-03-23T03:34:20.195Z,28.09
2023-03-23T03:38:20.116Z,28.06
2023-03-23T03:42:20.152Z,28.05
2023-03-23T03:46:20.111Z,28.05
2023-03-23T03:50:20.060Z,28.05
2023-03-23T03:54:20.046Z,28.05
2023-03-23T03:58:20.062Z,28.05
2023-03-23T04:02:19.919Z,28.04
2023-03-23T04:06:20.152Z,28.04
2023-03-23T04:10:32.687Z,28.05
2023-03-23T04:14:20.834Z,28.04
2023-03-23T04:18:19.825Z,28.04
2023-03-23T04:22:19.769Z,28.04
2023-03-23T04:26:19.732Z,28.01
2023-03-23T04:30:19.688Z,27.98
2023-03-23T04:34:19.612Z,28.02
2023-03-23T04:38:19.595Z,27.99
2023-03-23T04:42:19.582Z,27.99
2023-03-23T04:46:19.615Z,27.95
2023-03-23T04:50:19.554Z,27.98
2023-03-23T04:54:19.606Z,27.97
2023-03-23T04:58:19.609Z,27.97
2023-03-23T05:02:19.614Z,27.95
2023-03-23T05:06:19.659Z,28.02
2023-03-23T05:10:24.676Z,28.08
2023-03-23T05:14:20.631Z,28.08
2023-03-23T05:18:19.567Z,28.04
2023-03-23T05:22:19.485Z,28.04
2023-03-23T05:26:19.466Z,28.02
2023-03-23T05:30:19.476Z,27.98
2023-03-23T05:34:19.566Z,27.95
2023-03-23T05:38:19.681Z,27.88
2023-03-23T05:42:19.700Z,27.85
2023-03-23T05:46:20.570Z,27.87
2023-03-23T05:50:19.739Z,27.87
2023-03-23T05:54:19.736Z,27.85
2023-03-23T05:58:19.774Z,27.87
2023-03-23T06:02:19.725Z,27.85
2023-03-23T06:06:19.713Z,27.88
2023-03-23T06:10:19.746Z,27.92
2023-03-23T06:14:19.709Z,27.92
2023-03-23T06:18:19.694Z,27.94
2023-03-23T06:22:19.665Z,27.97
2023-03-23T06:26:19.623Z,27.92
2023-03-23T06:30:19.685Z,27.92
2023-03-23T06:34:20.231Z,27.95
2023-03-23T06:38:20.597Z,27.88
2023-03-23T06:42:19.665Z,27.88
2023-03-23T06:46:19.654Z,27.89
2023-03-23T06:50:19.658Z,27.92
2023-03-23T06:54:19.644Z,27.99
2023-03-23T06:58:19.662Z,28.02
2023-03-23T07:02:19.649Z,28.06
2023-03-23T07:06:19.678Z,28.20
2023-03-23T07:10:19.910Z,28.25
2023-03-23T07:14:19.991Z,28.36
2023-03-23T07:18:20.145Z,28.43
2023-03-23T07:22:20.267Z,28.52
2023-03-23T07:26:20.540Z,28.56
2023-03-23T07:30:20.522Z,28.59
2023-03-23T07:34:20.719Z,28.57
2023-03-23T07:38:20.617Z,28.59
2023-03-23T07:42:20.596Z,28.63
2023-03-23T07:46:20.859Z,28.61
2023-03-23T07:50:20.623Z,28.66
2023-03-23T07:54:20.465Z,28.64
2023-03-23T07:58:20.588Z,28.69
2023-03-23T08:02:20.413Z,28.78
2023-03-23T08:06:20.463Z,28.88
2023-03-23T08:10:20.356Z,28.94
2023-03-23T08:14:21.935Z,29.01
2023-03-23T08:18:20.263Z,29.04
2023-03-23T08:22:20.236Z,29.12
2023-03-23T08:26:20.149Z,29.14
2023-03-23T08:30:20.700Z,29.18
2023-03-23T08:34:20.107Z,29.05
2023-03-23T08:38:20.316Z,28.77
2023-03-23T08:42:20.665Z,28.74
2023-03-23T08:46:20.702Z,28.87
2023-03-23T08:50:20.887Z,28.91
2023-03-23T08:54:21.028Z,28.94
2023-03-23T08:58:21.218Z,28.99
2023-03-23T09:02:22.170Z,29.09
2023-03-23T09:06:21.353Z,29.09
2023-03-23T09:10:21.449Z,29.12
2023-03-23T09:14:21.503Z,29.12
2023-03-23T09:18:21.641Z,29.15
2023-03-23T09:22:21.834Z,29.19
2023-03-23T09:26:21.669Z,29.18
2023-03-23T09:30:21.626Z,29.19
2023-03-23T09:34:21.642Z,29.17
2023-03-23T09:38:21.571Z,29.12
2023-03-23T09:42:21.607Z,29.08
2023-03-23T09:46:21.468Z,29.04
2023-03-23T09:50:21.447Z,29.07
2023-03-23T09:54:21.386Z,29.19
2023-03-23T09:58:21.362Z,29.28
2023-03-23T10:02:21.328Z,29.37
2023-03-23T10:06:21.271Z,29.45
2023-03-23T10:10:21.355Z,29.50
2023-03-23T10:14:21.712Z,29.55
2023-03-23T10:18:21.258Z,29.59
2023-03-23T10:22:21.245Z,29.57
2023-03-23T10:26:21.253Z,29.60
2023-03-23T10:30:21.850Z,29.67
2023-03-23T10:34:21.232Z,29.69
2023-03-23T10:38:21.259Z,29.73
2023-03-23T10:42:21.031Z,29.63
2023-03-23T10:46:31.601Z,29.53
2023-03-23T10:50:21.963Z,29.40
2023-03-23T10:54:20.928Z,29.44
2023-03-23T10:58:20.990Z,29.39
2023-03-23T11:02:29.409Z,29.35
2023-03-23T11:06:22.120Z,29.29
2023-03-23T11:10:21.072Z,29.24
2023-03-23T11:14:20.989Z,29.18
2023-03-23T11:18:20.980Z,29.19
2023-03-23T11:22:20.941Z,29.15
2023-03-23T11:26:20.913Z,29.12
2023-03-23T11:30:20.892Z,29.02
2023-03-23T11:34:21.100Z,28.88
2023-03-23T11:38:21.161Z,28.81
2023-03-23T11:42:21.293Z,28.70
2023-03-23T11:46:21.463Z,28.67
2023-03-23T11:50:21.610Z,28.64
2023-03-23T11:54:21.733Z,28.64
2023-03-23T11:58:21.918Z,28.60
2023-03-23T12:02:22.056Z,28.64
2023-03-23T12:06:22.172Z,28.71
2023-03-23T12:10:30.692Z,28.71
2023-03-23T12:14:25.157Z,28.71
2023-03-23T12:18:22.760Z,28.74
2023-03-23T12:22:22.265Z,28.75
2023-03-23T12:26:22.216Z,28.73
2023-03-23T12:30:22.402Z,28.75
2023-03-23T12:34:22.410Z,28.78
2023-03-23T12:38:22.549Z,28.82
2023-03-23T12:42:22.656Z,28.82
2023-03-23T12:46:22.765Z,28.97
2023-03-23T12:50:22.969Z,29.05
2023-03-23T12:54:23.042Z,29.07
2023-03-23T12:58:23.155Z,29.01
2023-03-23T13:02:23.286Z,29.05
2023-03-23T13:06:23.305Z,29.12
2023-03-23T13:10:24.303Z,29.12
2023-03-23T13:14:23.289Z,29.14
2023-03-23T13:18:23.234Z,29.22
2023-03-23T13:22:23.150Z,29.26
2023-03-23T13:26:23.125Z,29.32
2023-03-23T13:30:23.166Z,29.42
2023-03-23T13:34:23.378Z,29.49
2023-03-23T13:38:23.616Z,29.55
2023-03-23T13:42:23.769Z,29.60
2023-03-23T13:46:23.880Z,29.69
2023-03-23T13:50:24.133Z,29.74
2023-03-23T13:54:24.199Z,29.80
2023-03-23T13:58:24.212Z,29.85
2023-03-23T14:02:24.250Z,29.87
2023-03-23T14:06:24.278Z,29.90
2023-03-23T14:10:24.346Z,29.91
2023-03-23T14:14:24.432Z,29.91
2023-03-23T14:18:24.466Z,29.91
2023-03-23T14:22:24.571Z,29.90
2023-03-23T14:26:24.645Z,29.90
2023-03-23T14:30:24.732Z,29.91
2023-03-23T14:34:24.805Z,29.88
2023-03-23T14:38:24.881Z,29.90
2023-03-23T14:42:24.937Z,29.96
2023-03-23T14:46:25.339Z,29.94
2023-03-23T14:50:25.101Z,29.97
2023-03-23T14:54:25.082Z,30.00
2023-03-23T14:58:25.118Z,30.08
2023-03-23T15:02:25.283Z,30.12
2023-03-23T15:06:25.092Z,30.18
2023-03-23T15:10:25.132Z,30.17
2023-03-23T15:14:25.148Z,30.21
2023-03-23T15:18:25.167Z,30.17
2023-03-23T15:22:25.233Z,30.14
2023-03-23T15:26:25.276Z,30.15
2023-03-23T15:30:25.264Z,30.24
2023-03-23T15:34:25.285Z,30.24
2023-03-23T15:38:25.364Z,30.27
2023-03-23T15:42:26.691Z,30.32
2023-03-23T15:46:25.470Z,30.32
2023-03-23T15:50:25.506Z,30.29
2023-03-23T15:54:25.617Z,30.27
2023-03-23T15:58:25.679Z,30.19
2023-03-23T16:02:25.825Z,30.17
2023-03-23T16:06:25.816Z,30.11
2023-03-23T16:10:25.632Z,30.10
2023-03-23T16:14:25.669Z,30.05
2023-03-23T16:18:25.671Z,30.00
2023-03-23T16:22:25.728Z,29.99
2023-03-23T16:26:25.753Z,29.97
2023-03-23T16:30:25.747Z,29.88
2023-03-23T16:34:25.806Z,29.87
2023-03-23T16:38:25.964Z,29.84
2023-03-23T16:42:26.028Z,29.79
2023-03-23T16:46:26.105Z,29.76
2023-03-23T16:50:26.246Z,29.70
2023-03-23T16:54:26.325Z,29.70
2023-03-23T16:58:26.537Z,29.72
2023-03-23T17:02:26.861Z,29.64
2023-03-23T17:06:26.808Z,29.62
2023-03-23T17:10:27.029Z,29.57
2023-03-23T17:14:27.087Z,29.56
2023-03-23T17:18:27.294Z,29.52
2023-03-23T17:22:27.462Z,29.52
2023-03-23T17:26:27.902Z,29.46
2023-03-23T17:30:27.887Z,29.45
2023-03-23T17:34:28.120Z,29.44
2023-03-23T17:38:28.078Z,29.44
2023-03-23T17:42:28.063Z,29.37
2023-03-23T17:46:28.000Z,29.35
2023-03-23T17:50:27.968Z,29.33
2023-03-23T17:54:27.927Z,29.29
2023-03-23T17:58:27.931Z,29.29
2023-03-23T18:02:27.932Z,29.25
2023-03-23T18:06:27.790Z,29.22
2023-03-23T18:10:27.797Z,29.21
2023-03-23T18:14:27.921Z,29.21
2023-03-23T18:18:27.695Z,29.17
2023-03-23T18:22:27.728Z,29.15
2023-03-23T18:26:27.717Z,29.14
2023-03-23T18:30:27.672Z,29.15
2023-03-23T18:34:27.625Z,29.11
2023-03-23T18:38:27.727Z,29.08
2023-03-23T18:42:27.778Z,29.01
2023-03-23T18:46:27.877Z,28.90
2023-03-23T18:50:28.024Z,28.82
2023-03-23T18:54:28.172Z,28.77
2023-03-23T18:58:28.388Z,28.78
2023-03-23T19:02:28.599Z,28.73
2023-03-23T19:06:28.725Z,28.74
2023-03-23T19:10:28.880Z,28.69
2023-03-23T19:14:29.001Z,28.71
2023-03-23T19:18:29.132Z,28.69
2023-03-23T19:22:29.217Z,28.73
2023-03-23T19:26:29.351Z,28.73
2023-03-23T19:30:29.480Z,28.74
2023-03-23T19:34:30.092Z,28.74
2023-03-23T19:38:29.702Z,28.75
2023-03-23T19:42:29.848Z,28.73
2023-03-23T19:46:30.971Z,28.70
2023-03-23T19:50:30.030Z,28.71
2023-03-23T19:54:30.132Z,28.67
2023-03-23T19:58:30.450Z,28.70
2023-03-23T20:02:30.555Z,28.67
2023-03-23T20:06:30.556Z,28.66
2023-03-23T20:10:30.707Z,28.64
2023-03-23T20:14:30.985Z,28.64
2023-03-23T20:18:31.533Z,28.60
2023-03-23T20:22:31.123Z,28.61
2023-03-23T20:26:31.369Z,28.61
2023-03-23T20:30:31.458Z,28.60
2023-03-23T20:34:31.764Z,28.60
2023-03-23T20:38:31.914Z,28.59
2023-03-23T20:42:31.998Z,28.56
2023-03-23T20:46:32.210Z,28.56
2023-03-23T20:50:32.345Z,28.54
2023-03-23T20:54:32.555Z,28.54
2023-03-23T20:58:32.785Z,28.50
2023-03-23T21:02:32.932Z,28.50
2023-03-23T21:06:33.122Z,28.46
2023-03-23T21:10:33.259Z,28.49
2023-03-23T21:14:33.488Z,28.47
2023-03-23T21:18:33.618Z,28.46
2023-03-23T21:22:33.859Z,28.44
2023-03-23T21:26:34.029Z,28.46
2023-03-23T21:30:34.221Z,28.46
2023-03-23T21:34:34.452Z,28.44
2023-03-23T21:38:34.730Z,28.40
2023-03-23T21:42:34.656Z,28.40
2023-03-23T21:46:34.572Z,28.40
2023-03-23T21:50:34.570Z,28.42
2023-03-23T21:54:34.483Z,28.39
2023-03-23T21:58:34.445Z,28.38
2023-03-23T22:02:34.425Z,28.36
2023-03-23T22:06:34.439Z,28.38
2023-03-23T22:10:34.343Z,28.38
2023-03-23T22:14:34.319Z,28.35
2023-03-23T22:18:34.256Z,28.35
2023-03-23T22:22:34.242Z,28.36
2023-03-23T22:26:34.218Z,28.35
2023-03-23T22:30:34.199Z,28.33
2023-03-23T22:34:34.135Z,28.32
2023-03-23T22:38:34.108Z,28.30
2023-03-23T22:42:34.092Z,28.30
2023-03-23T22:46:34.058Z,28.32
2023-03-23T22:50:33.982Z,28.27
2023-03-23T22:54:33.970Z,28.29
2023-03-23T22:58:34.001Z,28.27
2023-03-23T23:02:33.973Z,28.29
2023-03-23T23:06:33.940Z,28.27
2023-03-23T23:10:33.922Z,28.27
2023-03-23T23:14:33.842Z,28.27
2023-03-23T23:18:33.839Z,28.27
2023-03-23T23:22:33.764Z,28.26
2023-03-23T23:26:33.707Z,28.25
2023-03-23T23:30:33.689Z,28.26
2023-03-23T23:34:33.772Z,28.23
2023-03-23T23:38:33.615Z,28.23
2023-03-23T23:42:33.590Z,28.22
2023-03-23T23:46:33.751Z,28.25
2023-03-23T23:50:33.830Z,28.22
2023-03-23T23:54:33.925Z,28.20
2023-03-23T23:58:34.038Z,28.20
